Time;durP1;ratioP1;P1;durP2;ratioP2;P2;SDS_P1;SDS_P2;PMS_P1;PMS_P2;Temp;Humidity;BMP_temperature;BMP_pressure;BME280_temperature;BME280_humidity;BME280_pressure;Samples;Min_cycle;Max_cycle;Signal;HPM_P1;HPM_P2
2022/03/04 00:00:02;;;;;;;;;;;;;;;;;;349909;28;1976;-78
2022/03/04 00:00:13;;;;;;;;;;;;;;;;;;349063;28;1844;-78
2022/03/04 00:00:23;;;;;;;;;;;;;;;;;;349100;28;1809;-78
2022/03/04 00:00:34;;;;;;;;;;;;;;;;;;350014;28;879;-78
2022/03/04 00:00:44;;;;;;;;;;;;;;;;;;349957;28;924;-78
2022/03/04 00:00:55;;;;;;;;;;;;;;;;;;349974;28;837;-78
2022/03/04 00:01:05;;;;;;;;;;;;;;;;;;349939;28;949;-78
2022/03/04 00:01:15;;;;;;;;;;;;;;;;;;349954;28;841;-78
2022/03/04 00:01:26;;;;;;;;;;;;;;;;;;349973;28;783;-79
2022/03/04 00:01:36;;;;;;;;;;;;;;;;;;349971;28;917;-78
2022/03/04 00:01:46;;;;;;;;;;;;;;;;;;349928;28;770;-78
2022/03/04 00:01:57;;;;;;;;;;;;;;;;;;349872;28;980;-78
2022/03/04 00:02:08;;;;;;;;;;;;;;;;;;349934;28;909;-78
2022/03/04 00:02:21;;;;;;;;;;;;;;;;;;349998;28;854;-78
2022/03/04 00:02:31;;;;;;;;;;;;;;;;;;349972;28;892;-78
2022/03/04 00:02:41;;;;;;;;;;;;;;;;;;348841;28;1750;-78
2022/03/04 00:02:53;;;;;;;;;;;;;;;;;;348537;28;790;-78
2022/03/04 00:03:03;;;;;;;;;;;;;;;;;;348629;28;858;-78
2022/03/04 00:03:15;;;;;;;;;;;;;;;;;;348621;28;787;-78
2022/03/04 00:03:25;;;;;;;;;;;;;;;;;;348537;28;1838;-78
2022/03/04 00:03:35;;;;;;;;;;;;;;;;;;348563;28;933;-78
2022/03/04 00:03:46;;;;;;;;;;;;;;;;;;348505;28;988;-78
2022/03/04 00:03:57;;;;;;;;;;;;;;;;;;348511;28;979;-78
2022/03/04 00:04:09;;;;;;;;;;;;;;;;;;348532;28;954;-78
2022/03/04 00:04:20;;;;;;;;;;;;;;;;;;348543;28;968;-78
2022/03/04 00:04:30;;;;;;;;;;;;;;;;;;348614;28;923;-78
2022/03/04 00:04:40;;;;;;;;;;;;;;;;;;348413;28;1648;-78
2022/03/04 00:04:51;;;;;;;;;;;;;;;;;;348530;28;1065;-78
2022/03/04 00:05:01;;;;;;;;;;;;;;;;;;348570;28;918;-78
2022/03/04 00:05:12;;;;;;;;;;;;;;;;;;348565;28;789;-78
2022/03/04 00:05:22;;;;;;;;;;;;;;;;;;348517;28;903;-78
2022/03/04 00:05:33;;;;;;;;;;;;;;;;;;348600;28;817;-78
2022/03/04 00:05:43;;;;;;;;;;;;;;;;;;348563;28;976;-78
2022/03/04 00:05:53;;;;;;;;;;;;;;;;;;348556;28;870;-78
2022/03/04 00:06:05;;;;;;;;;;;;;;;;;;348544;28;826;-77
2022/03/04 00:06:15;;;;;;;;;;;;;;;;;;348593;28;857;-78
2022/03/04 00:06:25;;;;;;;;;;;;;;;;;;348597;28;901;-78
2022/03/04 00:06:35;;;;;;;;;;;;;;;;;;348509;28;1853;-78
2022/03/04 00:06:46;;;;;;;;;;;;;;;;;;348408;28;1845;-78
2022/03/04 00:06:56;;;;;;;;;;;;;;;;;;348563;28;837;-78
2022/03/04 00:07:06;;;;;;;;;;;;;;;;;;348564;28;905;-78
2022/03/04 00:07:16;;;;;;;;;;;;;;;;;;348582;28;869;-78
2022/03/04 00:07:27;;;;;;;;;;;;;;;;;;349607;28;1465;-78
2022/03/04 00:07:37;;;;;;;;;;;;;;;;;;349811;28;1508;-78
2022/03/04 00:07:47;;;;;;;;;;;;;;;;;;348443;28;1736;-78
2022/03/04 00:07:58;;;;;;;;;;;;;;;;;;348578;28;1816;-78
2022/03/04 00:08:08;;;;;;;;;;;;;;;;;;348540;28;917;-78
2022/03/04 00:08:19;;;;;;;;;;;;;;;;;;349041;28;1813;-78
2022/03/04 00:08:29;;;;;;;;;;;;;;;;;;349977;28;924;-78
2022/03/04 00:08:39;;;;;;;;;;;;;;;;;;349931;28;1093;-78
2022/03/04 00:08:50;;;;;;;;;;;;;;;;;;349877;28;905;-78
2022/03/04 00:09:00;;;;;;;;;;;;;;;;;;349991;28;778;-78
2022/03/04 00:09:10;;;;;;;;;;;;;;;;;;349914;28;956;-78
2022/03/04 00:09:21;;;;;;;;;;;;;;;;;;349501;28;1806;-78
2022/03/04 00:09:31;;;;;;;;;;;;;;;;;;348667;28;1797;-78
2022/03/04 00:09:42;;;;;;;;;;;;;;;;;;349975;28;960;-77
2022/03/04 00:09:52;;;;;;;;;;;;;;;;;;349945;28;857;-78
2022/03/04 00:10:02;;;;;;;;;;;;;;;;;;349883;28;1000;-78
2022/03/04 00:10:13;;;;;;;;;;;;;;;;;;349939;28;1039;-78
2022/03/04 00:10:23;;;;;;;;;;;;;;;;;;349929;28;936;-77
2022/03/04 00:10:36;;;;;;;;;;;;;;;;;;349955;28;881;-77
2022/03/04 00:10:47;;;;;;;;;;;;;;;;;;349968;28;798;-78
2022/03/04 00:10:57;;;;;;;;;;;;;;;;;;349836;28;1035;-78
2022/03/04 00:11:07;;;;;;;;;;;;;;;;;;349922;28;837;-78
2022/03/04 00:11:18;;;;;;;;;;;;;;;;;;349889;28;1030;-78
2022/03/04 00:11:29;;;;;;;;;;;;;;;;;;349922;28;777;-78
2022/03/04 00:11:39;;;;;;;;;;;;;;;;;;349625;28;1833;-78
2022/03/04 00:11:49;;;;;;;;;;;;;;;;;;349964;28;813;-78
2022/03/04 00:12:02;;;;;;;;;;;;;;;;;;349910;28;876;-78
2022/03/04 00:12:13;;;;;;;;;;;;;;;;;;349917;28;928;-78
2022/03/04 00:12:23;;;;;;;;;;;;;;;;;;349835;28;1161;-78
2022/03/04 00:12:33;;;;;;;;;;;;;;;;;;349932;28;921;-78
2022/03/04 00:12:44;;;;;;;;;;;;;;;;;;349959;28;913;-78
2022/03/04 00:12:54;;;;;;;;;;;;;;;;;;349894;28;786;-78
2022/03/04 00:13:05;;;;;;;;;;;;;;;;;;349948;28;897;-78
2022/03/04 00:13:15;;;;;;;;;;;;;;;;;;349881;28;1131;-78
2022/03/04 00:13:25;;;;;;;;;;;;;;;;;;349883;28;999;-78
2022/03/04 00:13:36;;;;;;;;;;;;;;;;;;349961;28;963;-78
2022/03/04 00:13:46;;;;;;;;;;;;;;;;;;349931;28;932;-78
2022/03/04 00:13:56;;;;;;;;;;;;;;;;;;349082;28;1742;-78
2022/03/04 00:14:07;;;;;;;;;;;;;;;;;;348602;28;912;-78
2022/03/04 00:14:18;;;;;;;;;;;;;;;;;;348574;28;972;-78
2022/03/04 00:14:28;;;;;;;;;;;;;;;;;;348475;28;880;-78
2022/03/04 00:14:38;;;;;;;;;;;;;;;;;;349001;28;1293;-77
2022/03/04 00:14:49;;;;;;;;;;;;;;;;;;349969;28;852;-78
2022/03/04 00:14:59;;;;;;;;;;;;;;;;;;349875;28;963;-77
2022/03/04 00:15:09;;;;;;;;;;;;;;;;;;349957;28;909;-77
2022/03/04 00:15:20;;;;;;;;;;;;;;;;;;349928;28;975;-78
2022/03/04 00:15:31;;;;;;;;;;;;;;;;;;349823;28;1150;-78
2022/03/04 00:15:41;;;;;;;;;;;;;;;;;;350020;28;857;-78
2022/03/04 00:15:51;;;;;;;;;;;;;;;;;;349835;28;1942;-78
2022/03/04 00:16:02;;;;;;;;;;;;;;;;;;348472;28;1031;-78
2022/03/04 00:16:12;;;;;;;;;;;;;;;;;;348551;28;932;-77
2022/03/04 00:16:22;;;;;;;;;;;;;;;;;;348608;28;908;-78
2022/03/04 00:16:32;;;;;;;;;;;;;;;;;;348433;28;1072;-78
2022/03/04 00:16:43;;;;;;;;;;;;;;;;;;348598;28;984;-77
2022/03/04 00:16:53;;;;;;;;;;;;;;;;;;348570;28;925;-78
2022/03/04 00:17:03;;;;;;;;;;;;;;;;;;348505;28;983;-77
2022/03/04 00:17:13;;;;;;;;;;;;;;;;;;348590;28;838;-78
2022/03/04 00:17:23;;;;;;;;;;;;;;;;;;348499;28;1838;-78
2022/03/04 00:17:34;;;;;;;;;;;;;;;;;;348485;28;1836;-77
2022/03/04 00:17:44;;;;;;;;;;;;;;;;;;349907;28;1039;-77
2022/03/04 00:17:54;;;;;;;;;;;;;;;;;;349932;28;1018;-77
2022/03/04 00:18:04;;;;;;;;;;;;;;;;;;349922;28;921;-77
2022/03/04 00:18:15;;;;;;;;;;;;;;;;;;349978;28;893;-77
2022/03/04 00:18:26;;;;;;;;;;;;;;;;;;349950;28;865;-77
2022/03/04 00:18:36;;;;;;;;;;;;;;;;;;349870;28;892;-77
2022/03/04 00:19:06;;;;;;;;;;;;;;;;;;349901;28;1051;-77
2022/03/04 00:19:16;;;;;;;;;;;;;;;;;;349922;28;893;-77
2022/03/04 00:19:26;;;;;;;;;;;;;;;;;;349935;28;928;-78
2022/03/04 00:19:36;;;;;;;;;;;;;;;;;;348668;28;1888;-77
2022/03/04 00:19:47;;;;;;;;;;;;;;;;;;349468;28;1798;-78
2022/03/04 00:19:57;;;;;;;;;;;;;;;;;;349839;28;1976;-77
2022/03/04 00:20:08;;;;;;;;;;;;;;;;;;349753;28;1877;-77
2022/03/04 00:20:18;;;;;;;;;;;;;;;;;;348492;28;928;-78
2022/03/04 00:20:29;;;;;;;;;;;;;;;;;;348599;28;851;-77
2022/03/04 00:20:39;;;;;;;;;;;;;;;;;;348514;28;929;-77
2022/03/04 00:20:50;;;;;;;;;;;;;;;;;;348530;28;949;-77
2022/03/04 00:21:01;;;;;;;;;;;;;;;;;;348505;28;933;-77
2022/03/04 00:21:11;;;;;;;;;;;;;;;;;;348492;28;1035;-77
2022/03/04 00:21:21;;;;;;;;;;;;;;;;;;348510;28;1023;-78
2022/03/04 00:21:47;;;;;;;;;;;;;;;;;;348455;28;1485;-77
2022/03/04 00:21:57;;;;;;;;;;;;;;;;;;348437;28;1761;-77
2022/03/04 00:22:08;;;;;;;;;;;;;;;;;;348520;28;992;-77
2022/03/04 00:22:18;;;;;;;;;;;;;;;;;;348709;28;1697;-78
2022/03/04 00:22:29;;;;;;;;;;;;;;;;;;348626;28;960;-77
2022/03/04 00:22:39;;;;;;;;;;;;;;;;;;348515;28;933;-78
2022/03/04 00:22:49;;;;;;;;;;;;;;;;;;348483;28;905;-77
2022/03/04 00:22:59;;;;;;;;;;;;;;;;;;348529;28;995;-78
2022/03/04 00:23:10;;;;;;;;;;;;;;;;;;348582;28;905;-77
2022/03/04 00:23:20;;;;;;;;;;;;;;;;;;348543;28;920;-78
2022/03/04 00:23:31;;;;;;;;;;;;;;;;;;348558;28;932;-78
2022/03/04 00:23:42;;;;;;;;;;;;;;;;;;348516;28;984;-78
2022/03/04 00:23:52;;;;;;;;;;;;;;;;;;348622;28;897;-77
2022/03/04 00:24:03;;;;;;;;;;;;;;;;;;348494;28;897;-77
2022/03/04 00:24:13;;;;;;;;;;;;;;;;;;348503;28;878;-78
2022/03/04 00:24:23;;;;;;;;;;;;;;;;;;348473;28;1916;-77
2022/03/04 00:24:33;;;;;;;;;;;;;;;;;;348544;28;948;-78
2022/03/04 00:24:44;;;;;;;;;;;;;;;;;;348493;28;1253;-78
2022/03/04 00:24:54;;;;;;;;;;;;;;;;;;348536;28;774;-78
2022/03/04 00:25:05;;;;;;;;;;;;;;;;;;348615;28;932;-78
2022/03/04 00:25:16;;;;;;;;;;;;;;;;;;348554;28;873;-77
2022/03/04 00:25:26;;;;;;;;;;;;;;;;;;348548;28;788;-77
2022/03/04 00:25:37;;;;;;;;;;;;;;;;;;348556;28;913;-77
2022/03/04 00:25:48;;;;;;;;;;;;;;;;;;348588;28;928;-77
2022/03/04 00:25:58;;;;;;;;;;;;;;;;;;348557;28;897;-77
2022/03/04 00:26:08;;;;;;;;;;;;;;;;;;348486;28;953;-77
2022/03/04 00:26:18;;;;;;;;;;;;;;;;;;348542;28;876;-78
2022/03/04 00:26:29;;;;;;;;;;;;;;;;;;348574;28;846;-78
2022/03/04 00:26:40;;;;;;;;;;;;;;;;;;348537;28;806;-77
2022/03/04 00:26:51;;;;;;;;;;;;;;;;;;348513;28;1024;-77
2022/03/04 00:27:01;;;;;;;;;;;;;;;;;;348541;28;867;-78
2022/03/04 00:27:11;;;;;;;;;;;;;;;;;;348574;28;953;-77
2022/03/04 00:27:21;;;;;;;;;;;;;;;;;;348568;28;988;-78
2022/03/04 00:27:31;;;;;;;;;;;;;;;;;;348529;28;794;-78
2022/03/04 00:27:42;;;;;;;;;;;;;;;;;;348577;28;909;-78
2022/03/04 00:27:52;;;;;;;;;;;;;;;;;;348578;28;857;-77
2022/03/04 00:28:02;;;;;;;;;;;;;;;;;;348555;28;945;-78
2022/03/04 00:28:12;;;;;;;;;;;;;;;;;;348473;28;988;-78
2022/03/04 00:28:23;;;;;;;;;;;;;;;;;;348560;28;846;-77
2022/03/04 00:28:33;;;;;;;;;;;;;;;;;;348566;28;968;-78
2022/03/04 00:28:44;;;;;;;;;;;;;;;;;;348545;28;913;-78
2022/03/04 00:28:54;;;;;;;;;;;;;;;;;;348451;28;981;-78
2022/03/04 00:29:05;;;;;;;;;;;;;;;;;;348498;28;972;-79
2022/03/04 00:29:15;;;;;;;;;;;;;;;;;;348466;28;1900;-78
2022/03/04 00:29:26;;;;;;;;;;;;;;;;;;348571;28;798;-78
2022/03/04 00:29:36;;;;;;;;;;;;;;;;;;348514;28;983;-77
2022/03/04 00:29:46;;;;;;;;;;;;;;;;;;348571;28;900;-78
2022/03/04 00:29:56;;;;;;;;;;;;;;;;;;348593;28;787;-78
2022/03/04 00:30:07;;;;;;;;;;;;;;;;;;348349;28;1822;-78
2022/03/04 00:30:18;;;;;;;;;;;;;;;;;;349257;28;1802;-78
2022/03/04 00:30:29;;;;;;;;;;;;;;;;;;349943;28;983;-78
2022/03/04 00:30:39;;;;;;;;;;;;;;;;;;349972;28;896;-78
2022/03/04 00:30:50;;;;;;;;;;;;;;;;;;349877;28;998;-78
2022/03/04 00:31:00;;;;;;;;;;;;;;;;;;349861;28;863;-78
2022/03/04 00:31:10;;;;;;;;;;;;;;;;;;349865;28;885;-78
2022/03/04 00:31:20;;;;;;;;;;;;;;;;;;349908;28;924;-78
2022/03/04 00:31:31;;;;;;;;;;;;;;;;;;349946;28;794;-78
2022/03/04 00:31:42;;;;;;;;;;;;;;;;;;349922;28;858;-78
2022/03/04 00:31:52;;;;;;;;;;;;;;;;;;349889;28;913;-77
2022/03/04 00:32:02;;;;;;;;;;;;;;;;;;349371;28;1888;-78
2022/03/04 00:32:12;;;;;;;;;;;;;;;;;;348574;28;945;-78
2022/03/04 00:32:23;;;;;;;;;;;;;;;;;;348544;28;818;-78
2022/03/04 00:32:34;;;;;;;;;;;;;;;;;;348558;28;901;-78
2022/03/04 00:32:44;;;;;;;;;;;;;;;;;;348509;28;913;-78
2022/03/04 00:32:54;;;;;;;;;;;;;;;;;;348573;28;838;-78
2022/03/04 00:33:05;;;;;;;;;;;;;;;;;;348513;28;958;-78
2022/03/04 00:33:15;;;;;;;;;;;;;;;;;;348457;28;1778;-78
2022/03/04 00:33:25;;;;;;;;;;;;;;;;;;348414;28;1825;-78
2022/03/04 00:33:35;;;;;;;;;;;;;;;;;;348547;28;960;-78
2022/03/04 00:33:46;;;;;;;;;;;;;;;;;;348571;28;979;-77
2022/03/04 00:33:56;;;;;;;;;;;;;;;;;;348613;28;921;-77
2022/03/04 00:34:06;;;;;;;;;;;;;;;;;;348594;28;897;-78
2022/03/04 00:34:17;;;;;;;;;;;;;;;;;;348504;28;908;-78
2022/03/04 00:34:27;;;;;;;;;;;;;;;;;;348542;28;1915;-78
2022/03/04 00:34:38;;;;;;;;;;;;;;;;;;348531;28;996;-78
2022/03/04 00:34:48;;;;;;;;;;;;;;;;;;348558;28;936;-78
2022/03/04 00:34:58;;;;;;;;;;;;;;;;;;348515;28;980;-78
2022/03/04 00:35:09;;;;;;;;;;;;;;;;;;348536;28;1038;-77
2022/03/04 00:35:19;;;;;;;;;;;;;;;;;;348481;28;1004;-77
2022/03/04 00:35:29;;;;;;;;;;;;;;;;;;348514;28;972;-78
2022/03/04 00:35:40;;;;;;;;;;;;;;;;;;348470;28;987;-78
2022/03/04 00:35:52;;;;;;;;;;;;;;;;;;348571;28;909;-78
2022/03/04 00:36:03;;;;;;;;;;;;;;;;;;348503;28;1059;-78
2022/03/04 00:36:13;;;;;;;;;;;;;;;;;;348573;28;1080;-78
2022/03/04 00:36:24;;;;;;;;;;;;;;;;;;348482;28;858;-78
2022/03/04 00:36:35;;;;;;;;;;;;;;;;;;348553;28;905;-78
2022/03/04 00:36:45;;;;;;;;;;;;;;;;;;348560;28;1797;-78
2022/03/04 00:36:56;;;;;;;;;;;;;;;;;;348611;28;1856;-77
2022/03/04 00:37:07;;;;;;;;;;;;;;;;;;348496;28;921;-78
2022/03/04 00:37:17;;;;;;;;;;;;;;;;;;348535;28;928;-78
2022/03/04 00:37:28;;;;;;;;;;;;;;;;;;348507;28;829;-77
2022/03/04 00:37:38;;;;;;;;;;;;;;;;;;348546;28;882;-78
2022/03/04 00:37:48;;;;;;;;;;;;;;;;;;348521;28;846;-78
2022/03/04 00:37:58;;;;;;;;;;;;;;;;;;348579;28;921;-78
2022/03/04 00:38:08;;;;;;;;;;;;;;;;;;348596;28;830;-78
2022/03/04 00:38:19;;;;;;;;;;;;;;;;;;348494;28;1003;-78
2022/03/04 00:38:29;;;;;;;;;;;;;;;;;;348468;28;905;-78
2022/03/04 00:38:39;;;;;;;;;;;;;;;;;;348591;28;1292;-78
2022/03/04 00:38:50;;;;;;;;;;;;;;;;;;351330;28;971;-78
2022/03/04 00:39:00;;;;;;;;;;;;;;;;;;351355;28;924;-78
2022/03/04 00:39:12;;;;;;;;;;;;;;;;;;351303;28;841;-77
2022/03/04 00:39:23;;;;;;;;;;;;;;;;;;350719;28;1836;-78
2022/03/04 00:39:33;;;;;;;;;;;;;;;;;;349884;28;813;-78
2022/03/04 00:39:43;;;;;;;;;;;;;;;;;;349608;28;1887;-78
2022/03/04 00:39:54;;;;;;;;;;;;;;;;;;348680;28;1914;-78
2022/03/04 00:40:05;;;;;;;;;;;;;;;;;;348433;28;1983;-77
2022/03/04 00:40:15;;;;;;;;;;;;;;;;;;348457;28;992;-78
2022/03/04 00:40:25;;;;;;;;;;;;;;;;;;348579;28;854;-78
2022/03/04 00:40:36;;;;;;;;;;;;;;;;;;348471;28;905;-78
2022/03/04 00:40:47;;;;;;;;;;;;;;;;;;348568;28;830;-78
2022/03/04 00:40:58;;;;;;;;;;;;;;;;;;348590;28;924;-78
2022/03/04 00:41:08;;;;;;;;;;;;;;;;;;348509;28;1018;-78
2022/03/04 00:41:20;;;;;;;;;;;;;;;;;;348502;28;917;-77
2022/03/04 00:41:30;;;;;;;;;;;;;;;;;;348515;28;844;-78
2022/03/04 00:41:40;;;;;;;;;;;;;;;;;;348506;28;921;-78
2022/03/04 00:41:50;;;;;;;;;;;;;;;;;;348578;28;778;-78
2022/03/04 00:42:01;;;;;;;;;;;;;;;;;;348512;28;909;-77
2022/03/04 00:42:11;;;;;;;;;;;;;;;;;;348539;28;949;-78
2022/03/04 00:42:21;;;;;;;;;;;;;;;;;;348513;28;946;-77
2022/03/04 00:42:32;;;;;;;;;;;;;;;;;;348495;28;1028;-77
2022/03/04 00:42:42;;;;;;;;;;;;;;;;;;348474;28;1008;-78
2022/03/04 00:42:52;;;;;;;;;;;;;;;;;;348545;28;921;-78
2022/03/04 00:43:02;;;;;;;;;;;;;;;;;;348546;28;1167;-78
2022/03/04 00:43:13;;;;;;;;;;;;;;;;;;348570;28;837;-78
2022/03/04 00:43:23;;;;;;;;;;;;;;;;;;348467;28;952;-77
2022/03/04 00:43:33;;;;;;;;;;;;;;;;;;348519;28;901;-78
2022/03/04 00:43:43;;;;;;;;;;;;;;;;;;348507;28;920;-78
2022/03/04 00:43:54;;;;;;;;;;;;;;;;;;348498;28;996;-78
2022/03/04 00:44:04;;;;;;;;;;;;;;;;;;348484;28;968;-78
2022/03/04 00:44:14;;;;;;;;;;;;;;;;;;348516;28;1111;-78
2022/03/04 00:44:25;;;;;;;;;;;;;;;;;;348463;28;1845;-78
2022/03/04 00:44:35;;;;;;;;;;;;;;;;;;349671;28;1774;-78
2022/03/04 00:44:45;;;;;;;;;;;;;;;;;;349957;28;782;-78
2022/03/04 00:44:55;;;;;;;;;;;;;;;;;;349881;28;996;-78
2022/03/04 00:45:06;;;;;;;;;;;;;;;;;;349898;28;1110;-77
2022/03/04 00:45:16;;;;;;;;;;;;;;;;;;349870;28;984;-78
2022/03/04 00:45:26;;;;;;;;;;;;;;;;;;349916;28;909;-78
2022/03/04 00:45:37;;;;;;;;;;;;;;;;;;349850;28;915;-78
2022/03/04 00:45:47;;;;;;;;;;;;;;;;;;349871;28;940;-78
2022/03/04 00:45:57;;;;;;;;;;;;;;;;;;349954;28;850;-78
2022/03/04 00:46:07;;;;;;;;;;;;;;;;;;349899;28;929;-78
2022/03/04 00:46:18;;;;;;;;;;;;;;;;;;349949;28;936;-77
2022/03/04 00:46:29;;;;;;;;;;;;;;;;;;349952;28;853;-78
2022/03/04 00:46:39;;;;;;;;;;;;;;;;;;349848;28;1090;-78
2022/03/04 00:46:49;;;;;;;;;;;;;;;;;;349555;28;1788;-78
2022/03/04 00:46:59;;;;;;;;;;;;;;;;;;348782;28;1788;-78
2022/03/04 00:47:10;;;;;;;;;;;;;;;;;;348449;28;1075;-78
2022/03/04 00:47:20;;;;;;;;;;;;;;;;;;348529;28;925;-77
2022/03/04 00:47:30;;;;;;;;;;;;;;;;;;348693;28;1872;-77
2022/03/04 00:47:40;;;;;;;;;;;;;;;;;;349278;28;1837;-78
2022/03/04 00:47:51;;;;;;;;;;;;;;;;;;349892;28;862;-77
2022/03/04 00:48:01;;;;;;;;;;;;;;;;;;349976;28;794;-78
2022/03/04 00:48:11;;;;;;;;;;;;;;;;;;349682;28;1432;-79
2022/03/04 00:48:22;;;;;;;;;;;;;;;;;;349817;28;1535;-77
2022/03/04 00:48:32;;;;;;;;;;;;;;;;;;349954;28;830;-78
2022/03/04 00:48:42;;;;;;;;;;;;;;;;;;349846;28;909;-77
2022/03/04 00:48:53;;;;;;;;;;;;;;;;;;349174;28;1761;-77
2022/03/04 00:49:03;;;;;;;;;;;;;;;;;;348551;28;878;-78
2022/03/04 00:49:14;;;;;;;;;;;;;;;;;;348549;28;763;-78
2022/03/04 00:49:24;;;;;;;;;;;;;;;;;;348518;28;948;-78
2022/03/04 00:49:34;;;;;;;;;;;;;;;;;;348411;28;1877;-78
2022/03/04 00:49:44;;;;;;;;;;;;;;;;;;348509;28;976;-78
2022/03/04 00:49:55;;;;;;;;;;;;;;;;;;348484;28;925;-78
2022/03/04 00:50:06;;;;;;;;;;;;;;;;;;348487;28;938;-78
2022/03/04 00:50:16;;;;;;;;;;;;;;;;;;348691;28;945;-77
2022/03/04 00:50:26;;;;;;;;;;;;;;;;;;348833;28;850;-78
2022/03/04 00:50:36;;;;;;;;;;;;;;;;;;348850;28;803;-78
2022/03/04 00:50:46;;;;;;;;;;;;;;;;;;348725;28;972;-77
2022/03/04 00:50:57;;;;;;;;;;;;;;;;;;348808;28;826;-78
2022/03/04 00:51:07;;;;;;;;;;;;;;;;;;348878;28;821;-77
2022/03/04 00:51:18;;;;;;;;;;;;;;;;;;348791;28;858;-78
2022/03/04 00:51:28;;;;;;;;;;;;;;;;;;348780;28;862;-78
2022/03/04 00:51:39;;;;;;;;;;;;;;;;;;348831;28;845;-77
2022/03/04 00:51:49;;;;;;;;;;;;;;;;;;348773;28;976;-78
2022/03/04 00:51:59;;;;;;;;;;;;;;;;;;348793;28;948;-78
2022/03/04 00:52:09;;;;;;;;;;;;;;;;;;348745;28;913;-78
2022/03/04 00:52:19;;;;;;;;;;;;;;;;;;348800;28;979;-78
2022/03/04 00:52:30;;;;;;;;;;;;;;;;;;348813;28;997;-77
2022/03/04 00:52:41;;;;;;;;;;;;;;;;;;348806;28;941;-78
2022/03/04 00:52:51;;;;;;;;;;;;;;;;;;348745;28;834;-77
2022/03/04 00:53:02;;;;;;;;;;;;;;;;;;348783;28;976;-78
2022/03/04 00:53:13;;;;;;;;;;;;;;;;;;348777;28;1056;-78
2022/03/04 00:53:23;;;;;;;;;;;;;;;;;;348807;28;928;-77
2022/03/04 00:53:34;;;;;;;;;;;;;;;;;;348766;28;937;-78
2022/03/04 00:53:44;;;;;;;;;;;;;;;;;;348778;28;992;-78
2022/03/04 00:53:54;;;;;;;;;;;;;;;;;;348842;28;928;-78
2022/03/04 00:54:04;;;;;;;;;;;;;;;;;;348769;28;901;-78
2022/03/04 00:54:14;;;;;;;;;;;;;;;;;;348696;28;921;-78
2022/03/04 00:54:25;;;;;;;;;;;;;;;;;;348653;28;1806;-78
2022/03/04 00:54:35;;;;;;;;;;;;;;;;;;348859;28;837;-78
2022/03/04 00:54:45;;;;;;;;;;;;;;;;;;348763;28;992;-78
2022/03/04 00:54:55;;;;;;;;;;;;;;;;;;348734;28;1035;-78
2022/03/04 00:55:06;;;;;;;;;;;;;;;;;;348768;28;826;-78
2022/03/04 00:55:16;;;;;;;;;;;;;;;;;;348809;28;1004;-77
2022/03/04 00:55:26;;;;;;;;;;;;;;;;;;348788;28;1016;-77
2022/03/04 00:55:37;;;;;;;;;;;;;;;;;;348782;28;1003;-77
2022/03/04 00:55:48;;;;;;;;;;;;;;;;;;348783;28;808;-78
2022/03/04 00:55:58;;;;;;;;;;;;;;;;;;348803;28;921;-78
2022/03/04 00:56:09;;;;;;;;;;;;;;;;;;348805;28;817;-78
2022/03/04 00:56:20;;;;;;;;;;;;;;;;;;348687;28;1027;-77
2022/03/04 00:56:31;;;;;;;;;;;;;;;;;;348807;28;838;-78
2022/03/04 00:56:41;;;;;;;;;;;;;;;;;;348796;28;1933;-78
2022/03/04 00:56:52;;;;;;;;;;;;;;;;;;348795;28;916;-78
2022/03/04 00:57:02;;;;;;;;;;;;;;;;;;348761;28;999;-78
2022/03/04 00:57:12;;;;;;;;;;;;;;;;;;348797;28;921;-78
2022/03/04 00:57:22;;;;;;;;;;;;;;;;;;348742;28;1122;-78
2022/03/04 00:57:33;;;;;;;;;;;;;;;;;;348806;28;941;-78
2022/03/04 00:57:43;;;;;;;;;;;;;;;;;;348701;28;1120;-77
2022/03/04 00:57:53;;;;;;;;;;;;;;;;;;348711;28;1020;-77
2022/03/04 00:58:04;;;;;;;;;;;;;;;;;;348806;28;838;-77
2022/03/04 00:58:14;;;;;;;;;;;;;;;;;;348755;28;929;-77
2022/03/04 00:58:25;;;;;;;;;;;;;;;;;;348746;28;905;-77
2022/03/04 00:58:35;;;;;;;;;;;;;;;;;;348677;28;1822;-78
2022/03/04 00:58:45;;;;;;;;;;;;;;;;;;348775;28;897;-77
2022/03/04 00:58:55;;;;;;;;;;;;;;;;;;348724;28;1059;-78
2022/03/04 00:59:06;;;;;;;;;;;;;;;;;;348562;28;1178;-78
2022/03/04 00:59:16;;;;;;;;;;;;;;;;;;348825;28;812;-78
2022/03/04 00:59:26;;;;;;;;;;;;;;;;;;348851;28;869;-78
2022/03/04 00:59:36;;;;;;;;;;;;;;;;;;348799;28;913;-77
2022/03/04 00:59:47;;;;;;;;;;;;;;;;;;348749;28;909;-78
2022/03/04 00:59:57;;;;;;;;;;;;;;;;;;348757;28;905;-77
2022/03/04 01:00:07;;;;;;;;;;;;;;;;;;348756;28;1913;-77
2022/03/04 01:00:18;;;;;;;;;;;;;;;;;;348711;28;864;-78
2022/03/04 01:00:28;;;;;;;;;;;;;;;;;;348785;28;900;-78
2022/03/04 01:00:38;;;;;;;;;;;;;;;;;;348726;28;1912;-78
2022/03/04 01:00:49;;;;;;;;;;;;;;;;;;348741;28;917;-78
2022/03/04 01:00:59;;;;;;;;;;;;;;;;;;348760;28;1081;-77
2022/03/04 01:01:09;;;;;;;;;;;;;;;;;;348708;28;2008;-78
2022/03/04 01:01:19;;;;;;;;;;;;;;;;;;348702;28;1773;-77
2022/03/04 01:01:30;;;;;;;;;;;;;;;;;;348768;28;917;-77
2022/03/04 01:01:40;;;;;;;;;;;;;;;;;;348774;28;802;-77
2022/03/04 01:01:51;;;;;;;;;;;;;;;;;;348830;28;858;-78
2022/03/04 01:02:02;;;;;;;;;;;;;;;;;;348728;28;1047;-78
2022/03/04 01:02:12;;;;;;;;;;;;;;;;;;348829;28;874;-78
2022/03/04 01:02:22;;;;;;;;;;;;;;;;;;348731;28;921;-78
2022/03/04 01:02:34;;;;;;;;;;;;;;;;;;348783;28;925;-77
2022/03/04 01:02:45;;;;;;;;;;;;;;;;;;348782;28;929;-78
2022/03/04 01:02:55;;;;;;;;;;;;;;;;;;348828;28;833;-78
2022/03/04 01:03:05;;;;;;;;;;;;;;;;;;348796;28;974;-77
2022/03/04 01:03:16;;;;;;;;;;;;;;;;;;348736;28;1781;-78
2022/03/04 01:03:26;;;;;;;;;;;;;;;;;;348791;28;762;-77
2022/03/04 01:03:37;;;;;;;;;;;;;;;;;;348839;28;916;-78
2022/03/04 01:03:47;;;;;;;;;;;;;;;;;;348696;28;1055;-78
2022/03/04 01:03:57;;;;;;;;;;;;;;;;;;348748;28;897;-78
2022/03/04 01:04:08;;;;;;;;;;;;;;;;;;348761;28;854;-78
2022/03/04 01:04:18;;;;;;;;;;;;;;;;;;349320;28;1896;-77
2022/03/04 01:04:28;;;;;;;;;;;;;;;;;;350128;28;928;-77
2022/03/04 01:04:38;;;;;;;;;;;;;;;;;;350105;28;838;-77
2022/03/04 01:04:48;;;;;;;;;;;;;;;;;;350197;28;905;-77
2022/03/04 01:04:59;;;;;;;;;;;;;;;;;;350209;28;796;-78
2022/03/04 01:05:09;;;;;;;;;;;;;;;;;;350119;28;991;-79
2022/03/04 01:05:19;;;;;;;;;;;;;;;;;;350089;28;1000;-77
2022/03/04 01:05:30;;;;;;;;;;;;;;;;;;350137;28;1001;-78
2022/03/04 01:05:40;;;;;;;;;;;;;;;;;;350180;28;787;-78
2022/03/04 01:05:50;;;;;;;;;;;;;;;;;;350185;28;940;-78
2022/03/04 01:06:01;;;;;;;;;;;;;;;;;;350106;28;1095;-78
2022/03/04 01:06:11;;;;;;;;;;;;;;;;;;350162;28;900;-78
2022/03/04 01:06:22;;;;;;;;;;;;;;;;;;350101;28;1214;-78
2022/03/04 01:06:32;;;;;;;;;;;;;;;;;;350159;28;845;-78
2022/03/04 01:06:42;;;;;;;;;;;;;;;;;;350180;28;900;-77
2022/03/04 01:06:53;;;;;;;;;;;;;;;;;;350179;28;865;-78
2022/03/04 01:07:03;;;;;;;;;;;;;;;;;;350133;28;937;-77
2022/03/04 01:07:13;;;;;;;;;;;;;;;;;;350075;28;1362;-77
2022/03/04 01:07:24;;;;;;;;;;;;;;;;;;350170;28;980;-78
2022/03/04 01:07:34;;;;;;;;;;;;;;;;;;350138;28;1007;-78
2022/03/04 01:07:44;;;;;;;;;;;;;;;;;;350146;28;972;-78
2022/03/04 01:07:55;;;;;;;;;;;;;;;;;;350169;28;857;-78
2022/03/04 01:08:05;;;;;;;;;;;;;;;;;;349971;28;1877;-78
2022/03/04 01:08:15;;;;;;;;;;;;;;;;;;348942;28;1802;-77
2022/03/04 01:08:26;;;;;;;;;;;;;;;;;;349796;28;1813;-78
2022/03/04 01:08:36;;;;;;;;;;;;;;;;;;350071;28;929;-78
2022/03/04 01:08:47;;;;;;;;;;;;;;;;;;350170;28;884;-78
2022/03/04 01:08:57;;;;;;;;;;;;;;;;;;350092;28;852;-78
2022/03/04 01:09:07;;;;;;;;;;;;;;;;;;350141;28;905;-77
2022/03/04 01:09:18;;;;;;;;;;;;;;;;;;350141;28;1008;-77
2022/03/04 01:09:28;;;;;;;;;;;;;;;;;;350206;28;845;-77
2022/03/04 01:09:39;;;;;;;;;;;;;;;;;;350172;28;802;-77
2022/03/04 01:09:49;;;;;;;;;;;;;;;;;;350169;28;872;-78
2022/03/04 01:10:00;;;;;;;;;;;;;;;;;;349719;28;1863;-77
2022/03/04 01:10:11;;;;;;;;;;;;;;;;;;348785;28;802;-78
2022/03/04 01:10:21;;;;;;;;;;;;;;;;;;348640;28;1844;-78
2022/03/04 01:10:32;;;;;;;;;;;;;;;;;;348765;28;971;-78
2022/03/04 01:10:42;;;;;;;;;;;;;;;;;;348785;28;881;-78
2022/03/04 01:10:52;;;;;;;;;;;;;;;;;;348788;28;949;-78
2022/03/04 01:11:03;;;;;;;;;;;;;;;;;;348813;28;908;-77
2022/03/04 01:11:13;;;;;;;;;;;;;;;;;;348666;28;976;-78
2022/03/04 01:11:23;;;;;;;;;;;;;;;;;;348772;28;890;-78
2022/03/04 01:11:33;;;;;;;;;;;;;;;;;;348745;28;976;-77
2022/03/04 01:11:43;;;;;;;;;;;;;;;;;;348812;28;904;-77
2022/03/04 01:11:54;;;;;;;;;;;;;;;;;;348759;28;859;-77
2022/03/04 01:12:04;;;;;;;;;;;;;;;;;;348689;28;1884;-77
2022/03/04 01:12:14;;;;;;;;;;;;;;;;;;348721;28;972;-77
2022/03/04 01:12:25;;;;;;;;;;;;;;;;;;348821;28;973;-77
2022/03/04 01:12:35;;;;;;;;;;;;;;;;;;348738;28;1012;-77
2022/03/04 01:12:46;;;;;;;;;;;;;;;;;;348714;28;1008;-79
2022/03/04 01:12:56;;;;;;;;;;;;;;;;;;348785;28;1003;-78
2022/03/04 01:13:06;;;;;;;;;;;;;;;;;;348808;28;854;-78
2022/03/04 01:13:17;;;;;;;;;;;;;;;;;;348647;28;1020;-77
2022/03/04 01:13:27;;;;;;;;;;;;;;;;;;348802;28;1004;-77
2022/03/04 01:13:37;;;;;;;;;;;;;;;;;;348824;28;1821;-78
2022/03/04 01:13:48;;;;;;;;;;;;;;;;;;348716;28;1825;-78
2022/03/04 01:13:58;;;;;;;;;;;;;;;;;;348565;28;1742;-78
2022/03/04 01:14:08;;;;;;;;;;;;;;;;;;349837;28;1806;-78
2022/03/04 01:14:19;;;;;;;;;;;;;;;;;;350165;28;778;-77
2022/03/04 01:14:29;;;;;;;;;;;;;;;;;;350136;28;980;-77
2022/03/04 01:14:39;;;;;;;;;;;;;;;;;;350056;28;1321;-78
2022/03/04 01:14:53;;;;;;;;;;;;;;;;;;350128;28;767;-78
2022/03/04 01:15:04;;;;;;;;;;;;;;;;;;350102;28;745;-78
2022/03/04 01:15:14;;;;;;;;;;;;;;;;;;350134;28;805;-78